sensor_id;sensor_type;location;lat;lon;timestamp;temperature;humidity
16327;DHT22;34812;49.846;9.610;2022-07-29T00:00:58;17.90;97.00
16327;DHT22;34812;49.846;9.610;2022-07-29T00:01:59;17.90;97.10
16327;DHT22;34812;49.846;9.610;2022-07-29T00:03:02;18.00;96.70
16327;DHT22;34812;49.846;9.610;2022-07-29T00:04:03;18.00;96.60
16327;DHT22;34812;49.846;9.610;2022-07-29T00:05:05;18.00;96.20
16327;DHT22;34812;49.846;9.610;2022-07-29T00:06:06;18.00;96.10
16327;DHT22;34812;49.846;9.610;2022-07-29T00:07:08;18.00;95.40
16327;DHT22;34812;49.846;9.610;2022-07-29T00:08:09;18.00;95.60
16327;DHT22;34812;49.846;9.610;2022-07-29T00:09:11;18.00;95.00
16327;DHT22;34812;49.846;9.610;2022-07-29T00:10:11;17.90;95.20
16327;DHT22;34812;49.846;9.610;2022-07-29T00:11:13;18.00;95.30
16327;DHT22;34812;49.846;9.610;2022-07-29T00:12:15;18.00;95.10
16327;DHT22;34812;49.846;9.610;2022-07-29T00:13:17;17.90;94.90
16327;DHT22;34812;49.846;9.610;2022-07-29T00:14:17;17.90;94.70
16327;DHT22;34812;49.846;9.610;2022-07-29T00:15:19;17.90;94.50
16327;DHT22;34812;49.846;9.610;2022-07-29T00:16:20;17.90;95.00
16327;DHT22;34812;49.846;9.610;2022-07-29T00:17:22;17.90;95.00
16327;DHT22;34812;49.846;9.610;2022-07-29T00:18:22;17.90;94.80
16327;DHT22;34812;49.846;9.610;2022-07-29T00:19:24;17.90;94.50
16327;DHT22;34812;49.846;9.610;2022-07-29T00:20:25;18.00;95.60
16327;DHT22;34812;49.846;9.610;2022-07-29T00:21:27;18.00;95.80
16327;DHT22;34812;49.846;9.610;2022-07-29T00:22:27;18.00;96.10
16327;DHT22;34812;49.846;9.610;2022-07-29T00:23:29;18.00;96.40
16327;DHT22;34812;49.846;9.610;2022-07-29T00:24:30;18.00;96.20
16327;DHT22;34812;49.846;9.610;2022-07-29T00:25:31;18.00;96.70
16327;DHT22;34812;49.846;9.610;2022-07-29T00:26:32;18.00;96.60
16327;DHT22;34812;49.846;9.610;2022-07-29T00:27:36;17.90;96.20
16327;DHT22;34812;49.846;9.610;2022-07-29T00:28:36;17.90;97.00
16327;DHT22;34812;49.846;9.610;2022-07-29T00:29:38;17.90;97.30
16327;DHT22;34812;49.846;9.610;2022-07-29T00:30:39;17.90;97.60
16327;DHT22;34812;49.846;9.610;2022-07-29T00:31:43;17.80;97.60
16327;DHT22;34812;49.846;9.610;2022-07-29T00:32:44;17.90;97.90
16327;DHT22;34812;49.846;9.610;2022-07-29T00:33:45;17.80;98.10
16327;DHT22;34812;49.846;9.610;2022-07-29T00:34:46;17.80;98.10
16327;DHT22;34812;49.846;9.610;2022-07-29T00:36:05;17.80;98.10
16327;DHT22;34812;49.846;9.610;2022-07-29T00:37:07;17.80;97.60
16327;DHT22;34812;49.846;9.610;2022-07-29T00:38:08;17.80;97.70
16327;DHT22;34812;49.846;9.610;2022-07-29T00:39:09;17.80;97.70
16327;DHT22;34812;49.846;9.610;2022-07-29T00:40:10;17.70;97.40
16327;DHT22;34812;49.846;9.610;2022-07-29T00:41:12;17.70;97.30
16327;DHT22;34812;49.846;9.610;2022-07-29T00:42:14;17.70;97.30
16327;DHT22;34812;49.846;9.610;2022-07-29T00:43:17;17.60;97.10
16327;DHT22;34812;49.846;9.610;2022-07-29T00:44:19;17.60;97.10
16327;DHT22;34812;49.846;9.610;2022-07-29T00:45:20;17.60;97.20
16327;DHT22;34812;49.846;9.610;2022-07-29T00:46:22;17.60;97.30
16327;DHT22;34812;49.846;9.610;2022-07-29T00:47:23;17.60;97.40
16327;DHT22;34812;49.846;9.610;2022-07-29T00:48:24;17.60;97.20
16327;DHT22;34812;49.846;9.610;2022-07-29T00:49:25;17.60;97.20
16327;DHT22;34812;49.846;9.610;2022-07-29T00:50:27;17.50;97.30
16327;DHT22;34812;49.846;9.610;2022-07-29T00:51:29;17.50;97.30
16327;DHT22;34812;49.846;9.610;2022-07-29T00:52:30;17.50;97.30
16327;DHT22;34812;49.846;9.610;2022-07-29T00:53:32;17.40;96.90
16327;DHT22;34812;49.846;9.610;2022-07-29T00:54:34;17.40;96.80
16327;DHT22;34812;49.846;9.610;2022-07-29T00:55:36;17.40;96.70
16327;DHT22;34812;49.846;9.610;2022-07-29T00:56:37;17.40;96.70
16327;DHT22;34812;49.846;9.610;2022-07-29T00:57:40;17.30;96.60
16327;DHT22;34812;49.846;9.610;2022-07-29T00:58:43;17.30;96.40
16327;DHT22;34812;49.846;9.610;2022-07-29T00:59:45;17.30;96.40
16327;DHT22;34812;49.846;9.610;2022-07-29T01:00:45;17.40;96.30
16327;DHT22;34812;49.846;9.610;2022-07-29T01:01:47;17.30;96.40
16327;DHT22;34812;49.846;9.610;2022-07-29T01:02:48;17.30;96.60
16327;DHT22;34812;49.846;9.610;2022-07-29T01:03:50;17.40;96.80
16327;DHT22;34812;49.846;9.610;2022-07-29T01:04:51;17.30;96.30
16327;DHT22;34812;49.846;9.610;2022-07-29T01:05:53;17.30;96.30
16327;DHT22;34812;49.846;9.610;2022-07-29T01:06:55;17.30;96.30
16327;DHT22;34812;49.846;9.610;2022-07-29T01:07:57;17.30;96.10
16327;DHT22;34812;49.846;9.610;2022-07-29T01:09:00;17.30;96.20
16327;DHT22;34812;49.846;9.610;2022-07-29T01:10:02;17.30;96.50
16327;DHT22;34812;49.846;9.610;2022-07-29T01:11:04;17.40;96.30
16327;DHT22;34812;49.846;9.610;2022-07-29T01:12:06;17.40;96.20
16327;DHT22;34812;49.846;9.610;2022-07-29T01:13:09;17.40;96.00
16327;DHT22;34812;49.846;9.610;2022-07-29T01:14:12;17.30;96.00
16327;DHT22;34812;49.846;9.610;2022-07-29T01:15:14;17.30;96.00
16327;DHT22;34812;49.846;9.610;2022-07-29T01:16:20;17.30;95.70
16327;DHT22;34812;49.846;9.610;2022-07-29T01:17:25;17.30;95.40
16327;DHT22;34812;49.846;9.610;2022-07-29T01:18:31;17.30;95.40
16327;DHT22;34812;49.846;9.610;2022-07-29T01:19:47;17.30;95.40
16327;DHT22;34812;49.846;9.610;2022-07-29T01:21:12;17.30;95.00
16327;DHT22;34812;49.846;9.610;2022-07-29T01:22:29;17.30;94.70
16327;DHT22;34812;49.846;9.610;2022-07-29T01:23:48;17.30;94.80
16327;DHT22;34812;49.846;9.610;2022-07-29T01:25:05;17.30;94.80
16327;DHT22;34812;49.846;9.610;2022-07-29T01:26:31;17.30;94.70
16327;DHT22;34812;49.846;9.610;2022-07-29T01:27:41;17.20;94.70
16327;DHT22;34812;49.846;9.610;2022-07-29T01:28:55;17.20;94.70
16327;DHT22;34812;49.846;9.610;2022-07-29T01:30:02;17.20;94.70
16327;DHT22;34812;49.846;9.610;2022-07-29T01:31:04;17.20;94.70
16327;DHT22;34812;49.846;9.610;2022-07-29T01:32:11;17.20;94.80
16327;DHT22;34812;49.846;9.610;2022-07-29T01:33:15;17.30;94.80
16327;DHT22;34812;49.846;9.610;2022-07-29T01:34:38;17.20;94.80
16327;DHT22;34812;49.846;9.610;2022-07-29T01:35:43;17.30;94.80
16327;DHT22;34812;49.846;9.610;2022-07-29T01:36:48;17.30;94.70
16327;DHT22;34812;49.846;9.610;2022-07-29T01:37:54;17.30;95.70
16327;DHT22;34812;49.846;9.610;2022-07-29T01:39:04;17.30;96.30
16327;DHT22;34812;49.846;9.610;2022-07-29T01:40:11;17.30;96.60
16327;DHT22;34812;49.846;9.610;2022-07-29T01:41:17;17.30;97.60
16327;DHT22;34812;49.846;9.610;2022-07-29T01:42:23;17.30;98.00
16327;DHT22;34812;49.846;9.610;2022-07-29T01:43:34;17.40;98.90
16327;DHT22;34812;49.846;9.610;2022-07-29T01:44:46;17.30;98.80
16327;DHT22;34812;49.846;9.610;2022-07-29T01:45:55;17.30;99.30
16327;DHT22;34812;49.846;9.610;2022-07-29T01:47:01;17.30;99.70
16327;DHT22;34812;49.846;9.610;2022-07-29T01:48:11;17.30;99.90
16327;DHT22;34812;49.846;9.610;2022-07-29T01:49:16;17.30;99.90
16327;DHT22;34812;49.846;9.610;2022-07-29T01:50:19;17.20;99.90
16327;DHT22;34812;49.846;9.610;2022-07-29T01:51:27;17.20;99.90
16327;DHT22;34812;49.846;9.610;2022-07-29T01:52:33;17.20;99.90
16327;DHT22;34812;49.846;9.610;2022-07-29T01:53:41;17.20;99.70
16327;DHT22;34812;49.846;9.610;2022-07-29T01:54:47;17.20;99.80
16327;DHT22;34812;49.846;9.610;2022-07-29T01:55:51;17.20;99.80
16327;DHT22;34812;49.846;9.610;2022-07-29T01:56:55;17.20;99.50
16327;DHT22;34812;49.846;9.610;2022-07-29T01:57:58;17.30;99.20
16327;DHT22;34812;49.846;9.610;2022-07-29T01:59:01;17.30;99.10
16327;DHT22;34812;49.846;9.610;2022-07-29T02:00:07;17.30;98.90
16327;DHT22;34812;49.846;9.610;2022-07-29T02:01:08;17.30;98.90
16327;DHT22;34812;49.846;9.610;2022-07-29T02:02:13;17.30;98.80
16327;DHT22;34812;49.846;9.610;2022-07-29T02:03:15;17.30;98.80
16327;DHT22;34812;49.846;9.610;2022-07-29T02:04:19;17.20;98.80
16327;DHT22;34812;49.846;9.610;2022-07-29T02:05:22;17.30;98.90
16327;DHT22;34812;49.846;9.610;2022-07-29T02:06:25;17.30;98.70
16327;DHT22;34812;49.846;9.610;2022-07-29T02:07:29;17.20;98.50
16327;DHT22;34812;49.846;9.610;2022-07-29T02:08:33;17.20;98.50
16327;DHT22;34812;49.846;9.610;2022-07-29T02:09:35;17.20;98.40
16327;DHT22;34812;49.846;9.610;2022-07-29T02:10:38;17.20;98.10
16327;DHT22;34812;49.846;9.610;2022-07-29T02:11:45;17.20;98.10
16327;DHT22;34812;49.846;9.610;2022-07-29T02:12:48;17.20;98.00
16327;DHT22;34812;49.846;9.610;2022-07-29T02:13:52;17.10;98.00
16327;DHT22;34812;49.846;9.610;2022-07-29T02:14:59;17.10;97.80
16327;DHT22;34812;49.846;9.610;2022-07-29T02:16:06;17.10;98.00
16327;DHT22;34812;49.846;9.610;2022-07-29T02:17:08;17.00;98.00
16327;DHT22;34812;49.846;9.610;2022-07-29T02:18:14;17.00;98.10
16327;DHT22;34812;49.846;9.610;2022-07-29T02:19:17;17.00;98.30
16327;DHT22;34812;49.846;9.610;2022-07-29T02:20:19;17.00;98.00
16327;DHT22;34812;49.846;9.610;2022-07-29T02:21:23;16.90;98.20
16327;DHT22;34812;49.846;9.610;2022-07-29T02:22:28;16.90;98.20
16327;DHT22;34812;49.846;9.610;2022-07-29T02:23:30;16.90;98.40
16327;DHT22;34812;49.846;9.610;2022-07-29T02:24:35;16.80;98.20
16327;DHT22;34812;49.846;9.610;2022-07-29T02:25:37;16.80;98.50
16327;DHT22;34812;49.846;9.610;2022-07-29T02:26:41;16.80;98.50
16327;DHT22;34812;49.846;9.610;2022-07-29T02:27:44;16.70;98.10
16327;DHT22;34812;49.846;9.610;2022-07-29T02:28:48;16.70;98.40
16327;DHT22;34812;49.846;9.610;2022-07-29T02:29:50;16.70;98.20
16327;DHT22;34812;49.846;9.610;2022-07-29T02:30:53;16.70;97.60
16327;DHT22;34812;49.846;9.610;2022-07-29T02:31:59;16.80;97.60
16327;DHT22;34812;49.846;9.610;2022-07-29T02:33:01;16.80;97.90
16327;DHT22;34812;49.846;9.610;2022-07-29T02:34:06;16.80;97.80
16327;DHT22;34812;49.846;9.610;2022-07-29T02:35:09;16.80;97.80
16327;DHT22;34812;49.846;9.610;2022-07-29T02:36:11;16.80;98.10
16327;DHT22;34812;49.846;9.610;2022-07-29T02:37:12;16.80;98.20
16327;DHT22;34812;49.846;9.610;2022-07-29T02:38:16;16.80;98.20
16327;DHT22;34812;49.846;9.610;2022-07-29T02:39:36;16.90;98.10
16327;DHT22;34812;49.846;9.610;2022-07-29T02:40:39;16.90;97.90
16327;DHT22;34812;49.846;9.610;2022-07-29T02:41:45;16.90;97.80
16327;DHT22;34812;49.846;9.610;2022-07-29T02:42:48;16.90;97.80
16327;DHT22;34812;49.846;9.610;2022-07-29T02:43:53;16.80;97.70
16327;DHT22;34812;49.846;9.610;2022-07-29T02:44:56;16.80;97.90
16327;DHT22;34812;49.846;9.610;2022-07-29T02:45:59;16.80;98.00
16327;DHT22;34812;49.846;9.610;2022-07-29T02:47:08;16.70;98.10
16327;DHT22;34812;49.846;9.610;2022-07-29T02:48:15;16.70;98.10
16327;DHT22;34812;49.846;9.610;2022-07-29T02:49:28;16.70;99.50
16327;DHT22;34812;49.846;9.610;2022-07-29T02:50:36;16.70;99.90
16327;DHT22;34812;49.846;9.610;2022-07-29T02:51:42;16.70;99.50
16327;DHT22;34812;49.846;9.610;2022-07-29T02:52:47;16.60;99.40
16327;DHT22;34812;49.846;9.610;2022-07-29T02:53:53;16.60;99.00
16327;DHT22;34812;49.846;9.610;2022-07-29T02:54:58;16.70;99.30
16327;DHT22;34812;49.846;9.610;2022-07-29T02:56:07;16.60;99.00
16327;DHT22;34812;49.846;9.610;2022-07-29T02:57:19;16.70;99.10
16327;DHT22;34812;49.846;9.610;2022-07-29T02:58:25;16.70;99.10
16327;DHT22;34812;49.846;9.610;2022-07-29T02:59:30;16.60;99.10
16327;DHT22;34812;49.846;9.610;2022-07-29T03:00:37;16.70;99.20
16327;DHT22;34812;49.846;9.610;2022-07-29T03:01:41;16.70;99.20
16327;DHT22;34812;49.846;9.610;2022-07-29T03:02:45;16.70;99.00
16327;DHT22;34812;49.846;9.610;2022-07-29T03:03:53;16.70;99.10
16327;DHT22;34812;49.846;9.610;2022-07-29T03:04:55;16.70;99.20
16327;DHT22;34812;49.846;9.610;2022-07-29T03:06:00;16.70;99.30
16327;DHT22;34812;49.846;9.610;2022-07-29T03:07:02;16.70;99.20
16327;DHT22;34812;49.846;9.610;2022-07-29T03:08:07;16.70;98.90
16327;DHT22;34812;49.846;9.610;2022-07-29T03:09:10;16.70;99.10
16327;DHT22;34812;49.846;9.610;2022-07-29T03:10:12;16.70;98.70
16327;DHT22;34812;49.846;9.610;2022-07-29T03:11:14;16.80;98.70
16327;DHT22;34812;49.846;9.610;2022-07-29T03:12:16;16.70;98.70
16327;DHT22;34812;49.846;9.610;2022-07-29T03:13:17;16.80;98.40
16327;DHT22;34812;49.846;9.610;2022-07-29T03:14:20;16.70;98.60
16327;DHT22;34812;49.846;9.610;2022-07-29T03:15:21;16.70;98.40
16327;DHT22;34812;49.846;9.610;2022-07-29T03:16:23;16.70;98.20
16327;DHT22;34812;49.846;9.610;2022-07-29T03:17:25;16.70;97.90
16327;DHT22;34812;49.846;9.610;2022-07-29T03:18:29;16.70;97.70
16327;DHT22;34812;49.846;9.610;2022-07-29T03:19:31;16.70;97.70
16327;DHT22;34812;49.846;9.610;2022-07-29T03:20:33;16.60;97.90
16327;DHT22;34812;49.846;9.610;2022-07-29T03:21:34;16.70;98.10
16327;DHT22;34812;49.846;9.610;2022-07-29T03:22:39;16.80;98.10
16327;DHT22;34812;49.846;9.610;2022-07-29T03:23:44;16.80;98.20
16327;DHT22;34812;49.846;9.610;2022-07-29T03:24:45;16.80;98.10
16327;DHT22;34812;49.846;9.610;2022-07-29T03:25:46;16.80;98.30
16327;DHT22;34812;49.846;9.610;2022-07-29T03:26:47;16.80;98.20
16327;DHT22;34812;49.846;9.610;2022-07-29T03:27:49;16.80;98.20
16327;DHT22;34812;49.846;9.610;2022-07-29T03:28:51;16.80;98.20
16327;DHT22;34812;49.846;9.610;2022-07-29T03:29:51;16.80;98.20
16327;DHT22;34812;49.846;9.610;2022-07-29T03:30:53;16.80;97.90
16327;DHT22;34812;49.846;9.610;2022-07-29T03:31:54;16.80;98.00
16327;DHT22;34812;49.846;9.610;2022-07-29T03:32:56;16.80;98.00
16327;DHT22;34812;49.846;9.610;2022-07-29T03:33:58;16.80;98.10
16327;DHT22;34812;49.846;9.610;2022-07-29T03:35:00;16.70;98.10
16327;DHT22;34812;49.846;9.610;2022-07-29T03:36:01;16.70;98.70
16327;DHT22;34812;49.846;9.610;2022-07-29T03:37:03;16.70;99.50
16327;DHT22;34812;49.846;9.610;2022-07-29T03:38:06;16.70;99.60
16327;DHT22;34812;49.846;9.610;2022-07-29T03:39:08;16.70;99.40
16327;DHT22;34812;49.846;9.610;2022-07-29T03:40:13;16.70;99.60
16327;DHT22;34812;49.846;9.610;2022-07-29T03:41:15;16.70;99.80
16327;DHT22;34812;49.846;9.610;2022-07-29T03:42:19;16.70;99.90
16327;DHT22;34812;49.846;9.610;2022-07-29T03:43:23;16.70;99.90
16327;DHT22;34812;49.846;9.610;2022-07-29T03:44:27;16.70;99.90
16327;DHT22;34812;49.846;9.610;2022-07-29T03:45:30;16.80;99.90
16327;DHT22;34812;49.846;9.610;2022-07-29T03:46:33;16.70;99.90
16327;DHT22;34812;49.846;9.610;2022-07-29T03:47:38;16.70;99.90
16327;DHT22;34812;49.846;9.610;2022-07-29T03:48:43;16.70;99.60
16327;DHT22;34812;49.846;9.610;2022-07-29T03:49:50;16.70;99.60
16327;DHT22;34812;49.846;9.610;2022-07-29T03:50:54;16.70;99.70
16327;DHT22;34812;49.846;9.610;2022-07-29T03:51:55;16.70;99.70
16327;DHT22;34812;49.846;9.610;2022-07-29T03:52:57;16.70;99.90
16327;DHT22;34812;49.846;9.610;2022-07-29T03:53:58;16.70;99.90
16327;DHT22;34812;49.846;9.610;2022-07-29T03:55:00;16.70;99.70
16327;DHT22;34812;49.846;9.610;2022-07-29T03:56:02;16.70;99.60
16327;DHT22;34812;49.846;9.610;2022-07-29T03:57:04;16.70;99.20
16327;DHT22;34812;49.846;9.610;2022-07-29T03:58:07;16.70;98.80
16327;DHT22;34812;49.846;9.610;2022-07-29T03:59:10;16.80;98.60
16327;DHT22;34812;49.846;9.610;2022-07-29T04:00:13;16.70;98.40
16327;DHT22;34812;49.846;9.610;2022-07-29T04:01:16;16.80;98.40
16327;DHT22;34812;49.846;9.610;2022-07-29T04:02:18;16.80;98.60
16327;DHT22;34812;49.846;9.610;2022-07-29T04:03:20;16.80;98.80
16327;DHT22;34812;49.846;9.610;2022-07-29T04:04:21;16.80;99.20
16327;DHT22;34812;49.846;9.610;2022-07-29T04:05:24;16.80;98.60
16327;DHT22;34812;49.846;9.610;2022-07-29T04:06:25;16.80;98.40
16327;DHT22;34812;49.846;9.610;2022-07-29T04:07:26;16.80;97.90
16327;DHT22;34812;49.846;9.610;2022-07-29T04:08:28;16.90;98.20
16327;DHT22;34812;49.846;9.610;2022-07-29T04:09:29;17.00;98.00
16327;DHT22;34812;49.846;9.610;2022-07-29T04:10:31;17.00;97.90
16327;DHT22;34812;49.846;9.610;2022-07-29T04:11:32;17.00;97.70
16327;DHT22;34812;49.846;9.610;2022-07-29T04:12:34;17.00;97.60
16327;DHT22;34812;49.846;9.610;2022-07-29T04:13:35;17.00;97.40
16327;DHT22;34812;49.846;9.610;2022-07-29T04:14:37;17.00;97.50
16327;DHT22;34812;49.846;9.610;2022-07-29T04:15:37;17.00;97.30
16327;DHT22;34812;49.846;9.610;2022-07-29T04:16:39;16.90;97.20
16327;DHT22;34812;49.846;9.610;2022-07-29T04:17:40;16.90;97.20
16327;DHT22;34812;49.846;9.610;2022-07-29T04:18:41;16.90;97.00
16327;DHT22;34812;49.846;9.610;2022-07-29T04:19:42;16.90;97.00
16327;DHT22;34812;49.846;9.610;2022-07-29T04:20:45;16.80;97.00
16327;DHT22;34812;49.846;9.610;2022-07-29T04:21:46;16.80;97.20
16327;DHT22;34812;49.846;9.610;2022-07-29T04:22:48;16.80;96.90
16327;DHT22;34812;49.846;9.610;2022-07-29T04:23:49;16.90;97.80
16327;DHT22;34812;49.846;9.610;2022-07-29T04:24:51;16.90;98.20
16327;DHT22;34812;49.846;9.610;2022-07-29T04:25:51;16.80;98.60
16327;DHT22;34812;49.846;9.610;2022-07-29T04:26:53;16.80;99.10
16327;DHT22;34812;49.846;9.610;2022-07-29T04:27:54;16.80;99.10
16327;DHT22;34812;49.846;9.610;2022-07-29T04:29:01;16.80;99.90
16327;DHT22;34812;49.846;9.610;2022-07-29T04:30:03;16.80;99.90
16327;DHT22;34812;49.846;9.610;2022-07-29T04:31:05;16.80;99.90
16327;DHT22;34812;49.846;9.610;2022-07-29T04:32:06;16.80;99.90
16327;DHT22;34812;49.846;9.610;2022-07-29T04:33:08;16.90;99.90
16327;DHT22;34812;49.846;9.610;2022-07-29T04:34:09;16.90;99.90
16327;DHT22;34812;49.846;9.610;2022-07-29T04:35:11;16.90;99.90
16327;DHT22;34812;49.846;9.610;2022-07-29T04:36:14;16.90;99.90
16327;DHT22;34812;49.846;9.610;2022-07-29T04:37:14;16.90;99.60
16327;DHT22;34812;49.846;9.610;2022-07-29T04:38:16;16.90;99.20
16327;DHT22;34812;49.846;9.610;2022-07-29T04:39:17;16.80;98.80
16327;DHT22;34812;49.846;9.610;2022-07-29T04:40:19;16.80;98.70
16327;DHT22;34812;49.846;9.610;2022-07-29T04:41:20;16.80;98.60
16327;DHT22;34812;49.846;9.610;2022-07-29T04:42:22;16.70;98.60
16327;DHT22;34812;49.846;9.610;2022-07-29T04:43:23;16.70;98.60
16327;DHT22;34812;49.846;9.610;2022-07-29T04:44:24;16.70;98.50
16327;DHT22;34812;49.846;9.610;2022-07-29T04:45:25;16.70;98.60
16327;DHT22;34812;49.846;9.610;2022-07-29T04:46:27;16.70;98.70
16327;DHT22;34812;49.846;9.610;2022-07-29T04:47:27;16.70;98.80
16327;DHT22;34812;49.846;9.610;2022-07-29T04:48:29;16.70;99.00
16327;DHT22;34812;49.846;9.610;2022-07-29T04:49:31;16.70;99.20
16327;DHT22;34812;49.846;9.610;2022-07-29T04:50:32;16.70;99.40
16327;DHT22;34812;49.846;9.610;2022-07-29T04:51:35;16.60;99.50
16327;DHT22;34812;49.846;9.610;2022-07-29T04:52:36;16.60;99.60
16327;DHT22;34812;49.846;9.610;2022-07-29T04:53:38;16.60;99.70
16327;DHT22;34812;49.846;9.610;2022-07-29T04:54:39;16.60;99.70
16327;DHT22;34812;49.846;9.610;2022-07-29T04:55:40;16.60;99.80
16327;DHT22;34812;49.846;9.610;2022-07-29T04:56:42;16.60;99.90
16327;DHT22;34812;49.846;9.610;2022-07-29T04:57:43;16.50;99.90
16327;DHT22;34812;49.846;9.610;2022-07-29T04:58:44;16.50;99.90
16327;DHT22;34812;49.846;9.610;2022-07-29T04:59:45;16.60;99.90
16327;DHT22;34812;49.846;9.610;2022-07-29T05:00:47;16.60;99.90
16327;DHT22;34812;49.846;9.610;2022-07-29T05:01:48;16.60;99.90
16327;DHT22;34812;49.846;9.610;2022-07-29T05:02:49;16.60;99.90
16327;DHT22;34812;49.846;9.610;2022-07-29T05:03:51;16.60;99.90
16327;DHT22;34812;49.846;9.610;2022-07-29T05:04:51;16.60;99.90
16327;DHT22;34812;49.846;9.610;2022-07-29T05:05:53;16.60;99.70
16327;DHT22;34812;49.846;9.610;2022-07-29T05:06:55;16.70;99.70
16327;DHT22;34812;49.846;9.610;2022-07-29T05:07:57;16.70;99.70
16327;DHT22;34812;49.846;9.610;2022-07-29T05:08:58;16.70;99.50
16327;DHT22;34812;49.846;9.610;2022-07-29T05:09:59;16.70;99.50
16327;DHT22;34812;49.846;9.610;2022-07-29T05:11:00;16.80;99.30
16327;DHT22;34812;49.846;9.610;2022-07-29T05:12:02;16.80;99.30
16327;DHT22;34812;49.846;9.610;2022-07-29T05:13:03;16.90;99.10
16327;DHT22;34812;49.846;9.610;2022-07-29T05:14:05;16.90;99.00
16327;DHT22;34812;49.846;9.610;2022-07-29T05:15:06;17.00;98.90
16327;DHT22;34812;49.846;9.610;2022-07-29T05:16:08;17.00;98.80
16327;DHT22;34812;49.846;9.610;2022-07-29T05:17:09;17.00;98.80
16327;DHT22;34812;49.846;9.610;2022-07-29T05:18:11;17.00;98.90
16327;DHT22;34812;49.846;9.610;2022-07-29T05:19:11;17.00;98.90
16327;DHT22;34812;49.846;9.610;2022-07-29T05:20:13;17.10;98.90
16327;DHT22;34812;49.846;9.610;2022-07-29T05:21:14;17.10;98.80
16327;DHT22;34812;49.846;9.610;2022-07-29T05:22:17;17.10;99.20
16327;DHT22;34812;49.846;9.610;2022-07-29T05:23:18;17.10;99.00
16327;DHT22;34812;49.846;9.610;2022-07-29T05:24:19;17.10;99.00
16327;DHT22;34812;49.846;9.610;2022-07-29T05:25:20;17.10;98.90
16327;DHT22;34812;49.846;9.610;2022-07-29T05:26:22;17.10;98.80
16327;DHT22;34812;49.846;9.610;2022-07-29T05:27:23;17.20;98.70
16327;DHT22;34812;49.846;9.610;2022-07-29T05:28:24;17.20;98.70
16327;DHT22;34812;49.846;9.610;2022-07-29T05:29:25;17.20;98.80
16327;DHT22;34812;49.846;9.610;2022-07-29T05:30:27;17.20;98.80
16327;DHT22;34812;49.846;9.610;2022-07-29T05:31:28;17.20;98.90
16327;DHT22;34812;49.846;9.610;2022-07-29T05:32:29;17.20;98.90
16327;DHT22;34812;49.846;9.610;2022-07-29T05:33:30;17.20;98.80
16327;DHT22;34812;49.846;9.610;2022-07-29T05:34:32;17.20;98.90
16327;DHT22;34812;49.846;9.610;2022-07-29T05:35:33;17.30;99.00
16327;DHT22;34812;49.846;9.610;2022-07-29T05:36:35;17.30;99.00
16327;DHT22;34812;49.846;9.610;2022-07-29T05:37:37;17.30;99.00
16327;DHT22;34812;49.846;9.610;2022-07-29T05:38:39;17.30;99.00
16327;DHT22;34812;49.846;9.610;2022-07-29T05:39:39;17.30;99.00
16327;DHT22;34812;49.846;9.610;2022-07-29T05:40:41;17.40;99.10
16327;DHT22;34812;49.846;9.610;2022-07-29T05:41:42;17.40;99.30
16327;DHT22;34812;49.846;9.610;2022-07-29T05:42:43;17.40;99.30
16327;DHT22;34812;49.846;9.610;2022-07-29T05:43:44;17.40;99.20
16327;DHT22;34812;49.846;9.610;2022-07-29T05:44:46;17.40;99.30
16327;DHT22;34812;49.846;9.610;2022-07-29T05:45:47;17.50;99.30
16327;DHT22;34812;49.846;9.610;2022-07-29T05:46:49;17.40;99.20
16327;DHT22;34812;49.846;9.610;2022-07-29T05:47:50;17.50;99.10
16327;DHT22;34812;49.846;9.610;2022-07-29T05:48:51;17.60;98.90
16327;DHT22;34812;49.846;9.610;2022-07-29T05:49:52;17.60;98.60
16327;DHT22;34812;49.846;9.610;2022-07-29T05:50:54;17.70;98.40
16327;DHT22;34812;49.846;9.610;2022-07-29T05:51:55;17.80;98.30
16327;DHT22;34812;49.846;9.610;2022-07-29T05:52:58;17.80;98.10
16327;DHT22;34812;49.846;9.610;2022-07-29T05:54:00;17.90;98.10
16327;DHT22;34812;49.846;9.610;2022-07-29T05:55:01;18.00;97.90
16327;DHT22;34812;49.846;9.610;2022-07-29T05:56:05;18.00;97.80
16327;DHT22;34812;49.846;9.610;2022-07-29T05:57:06;18.10;97.90
16327;DHT22;34812;49.846;9.610;2022-07-29T05:58:08;18.20;97.40
16327;DHT22;34812;49.846;9.610;2022-07-29T05:59:08;18.30;97.30
16327;DHT22;34812;49.846;9.610;2022-07-29T06:00:11;18.40;97.10
16327;DHT22;34812;49.846;9.610;2022-07-29T06:01:12;18.50;96.90
16327;DHT22;34812;49.846;9.610;2022-07-29T06:02:14;18.60;97.00
16327;DHT22;34812;49.846;9.610;2022-07-29T06:03:14;18.70;96.50
16327;DHT22;34812;49.846;9.610;2022-07-29T06:04:16;18.80;96.30
16327;DHT22;34812;49.846;9.610;2022-07-29T06:05:17;18.90;96.50
16327;DHT22;34812;49.846;9.610;2022-07-29T06:06:19;19.00;96.40
16327;DHT22;34812;49.846;9.610;2022-07-29T06:07:20;19.20;96.10
16327;DHT22;34812;49.846;9.610;2022-07-29T06:08:23;19.30;95.60
16327;DHT22;34812;49.846;9.610;2022-07-29T06:09:23;19.50;95.20
16327;DHT22;34812;49.846;9.610;2022-07-29T06:10:26;19.60;94.90
16327;DHT22;34812;49.846;9.610;2022-07-29T06:11:27;19.70;94.40
16327;DHT22;34812;49.846;9.610;2022-07-29T06:12:28;19.80;94.20
16327;DHT22;34812;49.846;9.610;2022-07-29T06:13:30;20.00;94.00
16327;DHT22;34812;49.846;9.610;2022-07-29T06:14:31;20.10;93.50
16327;DHT22;34812;49.846;9.610;2022-07-29T06:15:33;20.30;92.70
16327;DHT22;34812;49.846;9.610;2022-07-29T06:16:34;20.30;92.80
16327;DHT22;34812;49.846;9.610;2022-07-29T06:17:35;20.40;92.00
16327;DHT22;34812;49.846;9.610;2022-07-29T06:18:37;20.50;91.50
16327;DHT22;34812;49.846;9.610;2022-07-29T06:19:38;20.70;91.40
16327;DHT22;34812;49.846;9.610;2022-07-29T06:20:39;20.80;91.50
16327;DHT22;34812;49.846;9.610;2022-07-29T06:21:41;20.90;91.30
16327;DHT22;34812;49.846;9.610;2022-07-29T06:22:43;21.00;90.80
16327;DHT22;34812;49.846;9.610;2022-07-29T06:23:45;21.10;90.50
16327;DHT22;34812;49.846;9.610;2022-07-29T06:24:47;21.20;90.30
16327;DHT22;34812;49.846;9.610;2022-07-29T06:25:48;21.20;90.00
16327;DHT22;34812;49.846;9.610;2022-07-29T06:26:50;21.30;88.90
16327;DHT22;34812;49.846;9.610;2022-07-29T06:27:50;21.30;88.30
16327;DHT22;34812;49.846;9.610;2022-07-29T06:28:52;21.30;88.10
16327;DHT22;34812;49.846;9.610;2022-07-29T06:29:53;21.30;88.10
16327;DHT22;34812;49.846;9.610;2022-07-29T06:30:55;21.30;88.20
16327;DHT22;34812;49.846;9.610;2022-07-29T06:31:56;21.30;87.80
16327;DHT22;34812;49.846;9.610;2022-07-29T06:32:57;21.30;87.50
16327;DHT22;34812;49.846;9.610;2022-07-29T06:34:00;21.30;87.70
16327;DHT22;34812;49.846;9.610;2022-07-29T06:35:01;21.40;87.10
16327;DHT22;34812;49.846;9.610;2022-07-29T06:36:04;21.40;86.90
16327;DHT22;34812;49.846;9.610;2022-07-29T06:37:08;21.40;86.40
16327;DHT22;34812;49.846;9.610;2022-07-29T06:38:10;21.40;86.10